Flight Track Log - Related Links

Times and Time Zones

All times are in EDT time to prevent confusion due to time zone crossing. See the SWA1586 flight status page for this flight to view local times or setup timezone preferences in your user account.

Time Position Orientation Groundspeed Altitude Reporting Facility
EDT Latitude Longitude Course Direction KTS MPH feet Rate Location/Type
Sat 12:21:07 AM 39.8667 -104.5667 90° East 187 215 7,800  Level Denver TRACON
Sat 12:22:07 AM 39.8500 -104.5000 108° East 242 278 10,500 2,784 Climbing Denver TRACON
Sat 12:23:12 AM 39.8344 -104.3850 100° East 296 341 13,600 3,095 Climbing Denver Center
Sat 12:24:13 AM 39.8189 -104.2567 99° East 363 418 17,000 3,393 Climbing Denver Center
Sat 12:25:14 AM 39.8161 -104.1228 92° East 374 430 20,500 3,393 Climbing Denver Center
Sat 12:26:00 AM 39.7500 -103.8077 90° East  Level FlightAware Approximate
Sat 12:26:15 AM 39.8142 -103.9689 91° East 397 457 23,900  Level Denver Center
Sat 12:27:17 AM 39.8100 -103.8247 92° East 406 467 26,500 2,341 Climbing Denver Center
Sat 12:28:18 AM 39.8078 -103.6678 91° East 427 491 28,700 2,115 Climbing Denver Center
Sat 12:29:19 AM 39.8039 -103.5003 92° East 454 522 30,800 1,918 Climbing Denver Center
Sat 12:30:20 AM 39.8011 -103.3261 91° East 473 544 32,600 1,918 Climbing Denver Center
Sat 12:31:21 AM 39.7972 -103.1483 92° East 485 558 34,700 1,918 Climbing Denver Center
Sat 12:32:22 AM 39.7914 -103.0000 93° East 488 562 36,500 2,262 Climbing Denver Center
Sat 12:33:23 AM 39.7858 -102.7953 92° East 482 555 39,300 2,164 Climbing Denver Center
Sat 12:34:24 AM 39.7819 -102.6242 92° East 455 524 40,900 836 Climbing Denver Center
Sat 12:35:25 AM 39.7769 -102.4667 92° East 455 524 41,000 49 Climbing Denver Center
Sat 12:36:26 AM 39.7722 -102.2811 92° East 461 531 41,000  Level Denver Center
Sat 12:37:27 AM 39.7639 -102.1192 94° East 467 537 41,000  Level Denver Center
Sat 12:38:28 AM 39.7578 -101.9572 93° East 470 541 41,000  Level Denver Center
Sat 12:39:29 AM 39.7511 -101.7747 93° East 457 526 41,000  Level Denver Center
Sat 12:40:30 AM 39.7450 -101.6169 93° East 457 526 41,000  Level Denver Center
Sat 12:41:31 AM 39.7375 -101.4342 93° East 456 525 41,000  Level Denver Center
Sat 12:42:32 AM 39.7325 -101.2783 92° East 454 522 41,000  Level Denver Center
Sat 12:43:33 AM 39.7242 -101.1200 94° East 459 528 41,000  Level Denver Center
Sat 12:44:34 AM 39.7158 -100.9408 93° East 447 514 41,000  Level Denver Center
Sat 12:45:35 AM 39.7097 -100.7886 93° East 444 511 41,000  Level Denver Center
Sat 12:46:36 AM 39.7025 -100.6369 93° East 442 509 41,000  Level Denver Center
Sat 12:47:37 AM 39.6939 -100.4592 94° East 444 511 41,000  Level Denver Center
Sat 12:48:37 AM 39.6853 -100.3083 94° East 441 507 41,000  Level Denver Center
Sat 12:49:38 AM 39.6772 -100.1331 93° East 439 505 41,000  Level Denver Center
Sat 12:50:39 AM 39.6703 -100.0053 94° East 444 511 41,000  Level Denver Center
Sat 12:51:40 AM 39.6614 -99.8386 94° East 444 511 41,000  Level Denver Center
Sat 12:52:41 AM 39.6519 -99.6781 94° East 445 512 41,000  Level Denver Center
Sat 12:53:41 AM 39.6417 -99.4825 94° East 452 520 41,000  Level Denver Center
Sat 12:54:42 AM 39.6314 -99.3222 95° East 449 517 41,000  Level Denver Center
Sat 12:55:43 AM 39.6219 -99.1650 94° East 442 509 41,000  Level Denver Center
Sat 12:56:44 AM 39.6128 -99.0053 94° East 444 511 41,000  Level Denver Center
Sat 12:57:45 AM 39.6031 -98.8464 94° East 444 511 41,000  Level Denver Center
Sat 12:58:47 AM 39.5931 -98.6878 95° East 444 511 41,000  Level Denver Center
Sat 12:59:47 AM 39.5819 -98.5275 95° East 447 514 41,000  Level Denver Center
Sat 01:00:48 AM 39.5714 -98.3683 95° East 445 512 41,000  Level Denver Center
Sat 01:02:42 AM 39.5492 -98.0533 95° East 441 507 41,000  Level Minneapolis Center
Sat 01:03:18 AM 39.5433 -97.9767 96° East 441 507 41,000  Level Kansas City Center
Sat 01:04:18 AM 39.5319 -97.7992 95° East 437 503 41,000  Level Kansas City Center
Sat 01:05:19 AM 39.5214 -97.6414 95° East 438 504 41,000  Level Kansas City Center
Sat 01:06:19 AM 39.5086 -97.4858 96° East 437 503 41,000  Level Kansas City Center
Sat 01:07:20 AM 39.4956 -97.3258 96° East 437 503 41,000  Level Kansas City Center
Sat 01:09:21 AM 39.4728 -97.0261 96° East 439 505 41,000  Level Kansas City Center
Sat 01:10:21 AM 39.4597 -96.8756 96° East 439 505 41,000  Level Kansas City Center
Sat 01:11:22 AM 39.4453 -96.6981 96° East 442 509 41,000  Level Kansas City Center
Sat 01:12:22 AM 39.4331 -96.5475 96° East 441 507 41,000  Level Kansas City Center
Sat 01:13:22 AM 39.4211 -96.4042 96° East 439 505 41,000  Level Kansas City Center
Sat 01:14:23 AM 39.4078 -96.2475 96° East 438 504 41,000  Level Kansas City Center
Sat 01:15:23 AM 39.3917 -96.0742 97° East 437 503 41,000  Level Kansas City Center
Sat 01:16:24 AM 39.3786 -95.9258 96° East 434 499 41,000  Level Kansas City Center
Sat 01:17:24 AM 39.3667 -95.7767 96° East 438 504 41,000  Level Kansas City Center
Sat 01:18:24 AM 39.3506 -95.6044 97° East 431 496 41,000  Level Kansas City Center
Sat 01:19:25 AM 39.3367 -95.4542 97° East 428 493 41,000  Level Kansas City Center
Sat 01:20:25 AM 39.3208 -95.2906 97° East 427 491 41,000  Level Kansas City Center
Sat 01:21:25 AM 39.3069 -95.1375 97° East 430 495 41,000  Level Kansas City Center
Sat 01:22:26 AM 39.2928 -94.9886 97° East 428 493 41,000  Level Kansas City Center
Sat 01:23:26 AM 39.2775 -94.8433 98° East 426 490 41,000  Level Kansas City Center
Sat 01:24:26 AM 39.2642 -94.6981 97° East 425 489 41,000  Level Kansas City Center
Sat 01:25:27 AM 39.2500 -94.5500 97° East 431 496 41,000  Level Kansas City Center
Sat 01:26:27 AM 39.2317 -94.3772 98° East 436 502 41,000  Level Kansas City Center
Sat 01:27:27 AM 39.2161 -94.2278 98° East 437 503 41,000  Level Kansas City Center
Sat 01:28:28 AM 39.2006 -94.0783 98° East 439 505 41,000  Level Kansas City Center
Sat 01:29:28 AM 39.1811 -93.9033 98° East 442 509 41,000  Level Kansas City Center
Sat 01:30:29 AM 39.1661 -93.7542 97° East 441 507 41,000  Level Kansas City Center
Sat 01:31:29 AM 39.1486 -93.6042 99° East 442 509 41,000  Level Kansas City Center
Sat 01:32:29 AM 39.1328 -93.4544 98° East 442 509 41,000  Level Kansas City Center
Sat 01:33:29 AM 39.1156 -93.3011 98° East 443 510 41,000  Level Kansas City Center
Sat 01:34:30 AM 39.0986 -93.1458 98° East 445 512 41,000  Level Kansas City Center
Sat 01:35:30 AM 39.0811 -92.9933 98° East 442 509 41,000 -150 Level Kansas City Center
Sat 01:36:30 AM 39.0594 -92.8119 99° East 436 502 40,700 -1,190 Descending Kansas City Center
Sat 01:37:31 AM 39.0450 -92.6825 98° East 431 496 38,600 -2,281 Descending Kansas City Center
Sat 01:38:31 AM 39.0272 -92.5336 99° East 425 489 36,100 -2,450 Descending Kansas City Center
Sat 01:39:31 AM 39.0114 -92.3972 98° East 403 464 33,700 -2,281 Descending Kansas City Center
Sat 01:40:32 AM 38.9961 -92.2742 99° East 368 423 31,500 -2,281 Descending Kansas City Center
Sat 01:41:32 AM 38.9825 -92.1575 98° East 344 396 29,100 -1,650 Descending Kansas City Center
Sat 01:42:32 AM 38.9678 -92.0433 99° East 328 377 28,200 -1,190 Descending Kansas City Center
Sat 01:43:33 AM 38.9533 -91.9317 99° East 322 371 26,700 -1,785 Descending Kansas City Center
Sat 01:44:33 AM 38.9400 -91.8217 99° East 317 365 24,600 -2,100 Descending Kansas City Center
Sat 01:45:33 AM 38.9258 -91.7133 100° East 312 359 22,500 -2,150 Descending Kansas City Center
Sat 01:46:33 AM 38.9122 -91.6019 99° East 314 361 20,300 -2,132 Descending Kansas City Center
Sat 01:47:34 AM 38.8978 -91.4925 100° East 313 360 18,200 -2,083 Descending Kansas City Center
Sat 01:48:34 AM 38.8842 -91.3844 99° East 310 357 16,100 -1,100 Descending Kansas City Center
Sat 01:49:34 AM 38.8706 -91.2817 100° East 299 344 16,000 -400 Descending Kansas City Center
Sat 01:50:34 AM 38.8575 -91.1808 99° East 291 335 15,300 -1,339 Descending Kansas City Center
Sat 01:51:35 AM 38.8444 -91.0789 99° East 291 335 13,300 -1,884 Descending Kansas City Center
Sat 01:52:35 AM 38.8278 -90.9847 103° East 278 320 11,500 -1,650 Descending Kansas City Center
Sat 01:53:35 AM 38.7931 -90.9028 119° Southeast 265 305 10,000 -750 Descending Kansas City Center
Sat 01:54:35 AM 38.7653 -90.8253 115° Southeast 249 287 10,000 -545 Level Kansas City Center
Sat 01:55:36 AM 38.7369 -90.7514 116° Southeast 236 272 8,900 -1,289 Descending Kansas City Center
Sat 01:56:36 AM 38.7089 -90.6761 116° Southeast 236 272 7,400 -1,800 Descending Kansas City Center
Sat 01:57:36 AM 38.6769 -90.5897 115° Southeast 228 262 5,300 -1,200 Descending Kansas City Center
Sat 01:58:36 AM 38.6658 -90.5100 100° East 235 270 5,000 -639 Descending Kansas City Center
Sat 01:59:38 AM 38.6611 -90.4306 94° East 231 266 4,000 -984 Descending Kansas City Center
Sat 02:00:38 AM 38.6450 -90.3547 105° East 230 265 3,000 -500 Descending Kansas City Center
Sat 02:01:38 AM 38.6281 -90.2878 108° East 214 246 3,000 -50 Level Kansas City Center
Sat 02:02:38 AM 38.6122 -90.2219 107° East 203 234 2,900 -397 Descending Kansas City Center
Sat 02:03:39 AM 38.6567 -90.1878 31° Northeast 221 254 2,200 -347 Descending Kansas City Center
Sat 02:04:39 AM 38.6881 -90.2364 310° West 190 219 2,200 -300 Level Kansas City Center
Sat 02:05:39 AM 38.7131 -90.2878 302° West 180 207 1,600 -650 Descending Kansas City Center
Sat 02:06:39 AM 38.7322 -90.3253 303° West 147 169 900 -500 Descending Kansas City Center
Sat 02:07:39 AM 38.7536 -90.3714 301° West 139 160 600 -300 Descending Kansas City Center

Login

Don't have an account? Register now (free) for customized features, flight alerts, and more!